SBLO

Details ICAO SBLO (LDB)
Name Governador Jose Richa Airport
Region Brazil
Timezone America/Sao_Paulo (UTC-3.0)
Plans Departing 169
Arriving 163
Stats Elevation 1,868 ft / 569 m (AMSL)
Location -23.333600° -51.130100°
Runways 1
Magnetic Variation 19.291° W
Sunrise 2019-05-23 09:55:58 UTC / 2019-05-23 06:55:58 Local
Sunset 2019-05-23 20:49:24 UTC / 2019-05-23 17:49:24 Local
Advertisement - Login to hide

Runways

ID Width Length Bearing (true/mag) Surface Threshold Overrun Markings Lighting
13 148 ft / 45 m 6,888 ft / 2,100 m 110.10° / 129.40° ASPHALT 1,083 ft / 330 m 0 ft / 0 m APP CENTERLINE EDGE THRESHOLD REIL-OMNI
31 148 ft / 45 m 6,888 ft / 2,100 m 290.10° / 309.39° ASPHALT 0 ft / 0 m 0 ft / 0 m APP CENTERLINE EDGE THRESHOLD REIL-OMNI

Map

Weather


0- 5 10 15 20 25 30 35+ Temperature / °C

Clouds and Precipitation
Forecast for 2019-05-23 18:00 UTC. Updated 4 hours ago

Ground ~20,000 ft ~40,000 ft Winds

METAR

SBLO 231900Z 00000KT CAVOK 22/18 Q1014

TAF

TAF SBLO 231530Z 2318/2406 11005KT 9999 SCT040 TX25/2318Z TN17/2405Z PROB40 TEMPO 2318/2320 8000 SHRA BKN020 FEW030TCU RMK PCO

Frequencies

Recorded 127.67 MHz Londrina ATIS
Approach 129.70 MHz Londrina Approach
Tower 118.40 MHz Londrina Tower
Warning: Do not use this data for real-world aviation or navigation. No guarantee of current accuracy is given.